createdAt,value
2023-04-15T00:00:18.700Z,83.80
2023-04-15T00:01:18.725Z,83.18
2023-04-15T00:02:18.828Z,83.25
2023-04-15T00:03:18.968Z,82.59
2023-04-15T00:04:18.752Z,82.48
2023-04-15T00:05:18.668Z,82.79
2023-04-15T00:06:18.678Z,82.03
2023-04-15T00:07:18.652Z,82.03
2023-04-15T00:08:18.675Z,81.62
2023-04-15T00:09:18.680Z,81.21
2023-04-15T00:10:18.662Z,80.86
2023-04-15T00:11:18.628Z,80.96
2023-04-15T00:12:18.615Z,80.90
2023-04-15T00:13:18.634Z,80.65
2023-04-15T00:14:18.632Z,80.14
2023-04-15T00:15:18.665Z,79.83
2023-04-15T00:16:18.645Z,80.04
2023-04-15T00:17:18.652Z,80.04
2023-04-15T00:18:18.615Z,79.93
2023-04-15T00:19:18.600Z,79.83
2023-04-15T00:20:18.620Z,80.48
2023-04-15T00:21:18.587Z,81.41
2023-04-15T00:22:18.560Z,81.51
2023-04-15T00:23:18.577Z,81.31
2023-04-15T00:24:18.566Z,82.59
2023-04-15T00:25:18.606Z,82.59
2023-04-15T00:26:18.532Z,82.38
2023-04-15T00:27:18.554Z,82.59
2023-04-15T00:28:18.540Z,82.14
2023-04-15T00:29:18.525Z,81.62
2023-04-15T00:30:18.528Z,81.51
2023-04-15T00:31:18.586Z,81.51
2023-04-15T00:32:18.539Z,81.96
2023-04-15T00:33:18.538Z,83.10
2023-04-15T00:34:18.509Z,82.52
2023-04-15T00:35:18.498Z,83.34
2023-04-15T00:36:18.496Z,83.45
2023-04-15T00:37:19.508Z,83.65
2023-04-15T00:38:18.491Z,84.17
2023-04-15T00:39:18.471Z,83.83
2023-04-15T00:40:18.459Z,83.20
2023-04-15T00:41:18.453Z,82.28
2023-04-15T00:42:18.489Z,82.96
2023-04-15T00:43:18.462Z,82.24
2023-04-15T00:44:18.445Z,81.86
2023-04-15T00:45:18.454Z,81.86
2023-04-15T00:46:18.574Z,81.86
2023-04-15T00:47:18.457Z,82.07
2023-04-15T00:48:18.425Z,81.86
2023-04-15T00:49:18.418Z,82.48
2023-04-15T00:50:18.430Z,82.48
2023-04-15T00:51:18.420Z,81.66
2023-04-15T00:52:18.383Z,82.14
2023-04-15T00:53:18.435Z,81.72
2023-04-15T00:54:18.419Z,81.86
2023-04-15T00:55:18.391Z,81.62
2023-04-15T00:56:18.414Z,81.45
2023-04-15T00:57:18.408Z,82.10
2023-04-15T00:58:18.380Z,82.42
2023-04-15T00:59:18.390Z,82.83
2023-04-15T01:00:18.397Z,82.73
2023-04-15T01:01:18.357Z,82.42
2023-04-15T01:02:18.537Z,81.90
2023-04-15T01:03:18.554Z,82.15
2023-04-15T01:04:18.400Z,82.83
2023-04-15T01:05:18.330Z,82.62
2023-04-15T01:06:18.333Z,82.52
2023-04-15T01:07:18.378Z,82.62
2023-04-15T01:08:18.306Z,83.04
2023-04-15T01:09:18.298Z,81.86
2023-04-15T01:10:18.383Z,81.96
2023-04-15T01:11:18.273Z,81.56
2023-04-15T01:12:18.293Z,81.66
2023-04-15T01:13:18.291Z,81.66
2023-04-15T01:14:18.271Z,81.14
2023-04-15T01:15:18.273Z,80.90
2023-04-15T01:16:18.296Z,81.10
2023-04-15T01:17:18.277Z,80.38
2023-04-15T01:18:18.246Z,79.66
2023-04-15T01:19:18.241Z,80.18
2023-04-15T01:20:18.247Z,80.48
2023-04-15T01:21:18.296Z,80.90
2023-04-15T01:22:19.216Z,80.38
2023-04-15T01:23:18.228Z,80.38
2023-04-15T01:24:18.230Z,80.18
2023-04-15T01:25:18.247Z,80.38
2023-04-15T01:26:18.189Z,79.97
2023-04-15T01:27:18.197Z,79.97
2023-04-15T01:28:18.188Z,79.86
2023-04-15T01:29:18.244Z,80.00
2023-04-15T01:30:18.157Z,80.00
2023-04-15T01:31:18.202Z,80.93
2023-04-15T01:32:18.192Z,81.70
2023-04-15T01:33:18.139Z,81.56
2023-04-15T01:34:18.204Z,81.24
2023-04-15T01:35:18.142Z,81.35
2023-04-15T01:36:18.134Z,81.35
2023-04-15T01:37:18.120Z,81.35
2023-04-15T01:38:18.125Z,81.14
2023-04-15T01:39:18.151Z,81.04
2023-04-15T01:40:18.143Z,80.97
2023-04-15T01:41:18.084Z,81.04
2023-04-15T01:42:18.099Z,81.24
2023-04-15T01:43:18.086Z,80.93
2023-04-15T01:44:18.089Z,80.93
2023-04-15T01:45:18.121Z,81.24
2023-04-15T01:46:18.145Z,81.28
2023-04-15T01:47:18.055Z,81.18
2023-04-15T01:48:19.079Z,81.56
2023-04-15T01:49:18.032Z,81.56
2023-04-15T01:50:18.053Z,80.97
2023-04-15T01:51:18.045Z,80.87
2023-04-15T01:52:18.033Z,80.35
2023-04-15T01:53:18.027Z,80.76
2023-04-15T01:54:18.032Z,81.80
2023-04-15T01:55:18.057Z,81.38
2023-04-15T01:56:18.021Z,81.59
2023-04-15T01:57:17.986Z,81.70
2023-04-15T01:58:18.013Z,81.45
2023-04-15T01:59:18.028Z,81.59
2023-04-15T02:00:18.016Z,81.18
2023-04-15T02:01:18.076Z,81.28
2023-04-15T02:02:18.019Z,81.59
2023-04-15T02:03:18.070Z,81.49
2023-04-15T02:04:17.964Z,81.52
2023-04-15T02:05:17.958Z,82.04
2023-04-15T02:06:18.011Z,82.76
2023-04-15T02:07:17.958Z,82.50
2023-04-15T02:08:17.996Z,83.98
2023-04-15T02:09:17.958Z,84.25
2023-04-15T02:10:17.938Z,84.25
2023-04-15T02:11:17.910Z,84.25
2023-04-15T02:12:17.968Z,84.05
2023-04-15T02:13:17.902Z,83.73
2023-04-15T02:14:17.904Z,83.32
2023-04-15T02:15:17.914Z,83.53
2023-04-15T02:16:17.961Z,82.87
2023-04-15T02:17:17.924Z,82.60
2023-04-15T02:18:17.924Z,82.66
2023-04-15T02:19:17.863Z,82.66
2023-04-15T02:20:17.859Z,82.87
2023-04-15T02:21:17.886Z,82.31
2023-04-15T02:22:17.851Z,81.70
2023-04-15T02:23:17.871Z,82.15
2023-04-15T02:24:17.896Z,81.38
2023-04-15T02:25:17.842Z,81.28
2023-04-15T02:26:17.837Z,81.59
2023-04-15T02:27:17.829Z,81.38
2023-04-15T02:28:17.824Z,80.97
2023-04-15T02:29:17.843Z,81.32
2023-04-15T02:30:17.818Z,81.38
2023-04-15T02:31:17.821Z,81.94
2023-04-15T02:32:17.796Z,81.73
2023-04-15T02:33:17.801Z,83.07
2023-04-15T02:34:17.777Z,83.22
2023-04-15T02:35:17.824Z,83.53
2023-04-15T02:36:17.775Z,84.19
2023-04-15T02:37:17.762Z,85.02
2023-04-15T02:38:17.762Z,85.11
2023-04-15T02:39:17.739Z,85.36
2023-04-15T02:40:17.767Z,85.47
2023-04-15T02:41:17.757Z,85.68
2023-04-15T02:42:17.740Z,86.09
2023-04-15T02:43:17.739Z,86.54
2023-04-15T02:44:17.732Z,86.81
2023-04-15T02:45:17.754Z,87.43
2023-04-15T02:46:17.759Z,86.91
2023-04-15T02:47:17.696Z,86.40
2023-04-15T02:48:17.693Z,86.15
2023-04-15T02:49:17.693Z,85.74
2023-04-15T02:50:17.665Z,85.91
2023-04-15T02:51:17.705Z,85.42
2023-04-15T02:52:17.682Z,85.53
2023-04-15T02:53:17.720Z,85.42
2023-04-15T02:54:17.645Z,85.18
2023-04-15T02:55:17.629Z,84.87
2023-04-15T02:56:17.689Z,84.97
2023-04-15T02:57:17.624Z,85.80
2023-04-15T02:58:17.636Z,85.60
2023-04-15T02:59:17.624Z,84.87
2023-04-15T03:00:17.597Z,84.42
2023-04-15T03:01:17.700Z,84.31
2023-04-15T03:02:17.733Z,84.25
2023-04-15T03:03:17.752Z,84.31
2023-04-15T03:04:17.692Z,83.70
2023-04-15T03:05:17.607Z,83.90
2023-04-15T03:06:17.559Z,84.17
2023-04-15T03:07:17.587Z,83.97
2023-04-15T03:08:17.554Z,83.76
2023-04-15T03:09:17.594Z,83.55
2023-04-15T03:10:17.534Z,83.55
2023-04-15T03:11:17.541Z,83.20
2023-04-15T03:12:18.574Z,82.56
2023-04-15T03:13:17.570Z,83.18
2023-04-15T03:14:17.516Z,83.63
2023-04-15T03:15:17.522Z,85.02
2023-04-15T03:16:17.532Z,85.39
2023-04-15T03:17:17.559Z,84.91
2023-04-15T03:18:17.519Z,85.60
2023-04-15T03:19:17.485Z,85.60
2023-04-15T03:20:17.534Z,85.49
2023-04-15T03:21:17.464Z,85.35
2023-04-15T03:22:17.446Z,84.94
2023-04-15T03:23:17.483Z,84.73
2023-04-15T03:24:17.490Z,84.69
2023-04-15T03:25:17.452Z,84.31
2023-04-15T03:26:17.417Z,84.07
2023-04-15T03:27:17.426Z,83.65
2023-04-15T03:28:17.421Z,83.25
2023-04-15T03:29:17.418Z,83.45
2023-04-15T03:30:17.476Z,83.34
2023-04-15T03:31:17.399Z,83.65
2023-04-15T03:32:17.380Z,82.93
2023-04-15T03:33:17.377Z,82.93
2023-04-15T03:34:17.393Z,82.52
2023-04-15T03:35:17.397Z,82.62
2023-04-15T03:36:17.348Z,82.31
2023-04-15T03:37:17.358Z,82.52
2023-04-15T03:38:17.364Z,82.52
2023-04-15T03:39:17.387Z,82.42
2023-04-15T03:40:17.358Z,82.52
2023-04-15T03:41:17.357Z,82.93
2023-04-15T03:42:17.321Z,82.42
2023-04-15T03:43:17.321Z,82.62
2023-04-15T03:44:17.339Z,83.32
2023-04-15T03:45:17.303Z,83.73
2023-04-15T03:46:17.347Z,84.77
2023-04-15T03:47:17.296Z,85.18
2023-04-15T03:48:18.267Z,84.87
2023-04-15T03:49:18.317Z,84.77
2023-04-15T03:50:17.306Z,85.57
2023-04-15T03:51:17.259Z,86.29
2023-04-15T03:52:18.317Z,87.16
2023-04-15T03:53:17.278Z,87.85
2023-04-15T03:54:17.258Z,87.74
2023-04-15T03:55:17.274Z,88.26
2023-04-15T03:56:17.268Z,87.74
2023-04-15T03:57:17.240Z,87.18
2023-04-15T03:58:17.235Z,86.25
2023-04-15T03:59:17.221Z,86.36
2023-04-15T04:00:17.241Z,86.01
2023-04-15T04:01:17.224Z,85.60
2023-04-15T04:02:17.423Z,84.87
2023-04-15T04:03:17.320Z,84.45
2023-04-15T04:04:17.258Z,84.36
2023-04-15T04:05:17.186Z,84.45
2023-04-15T04:06:17.166Z,83.80
2023-04-15T04:07:17.201Z,83.53
2023-04-15T04:08:17.161Z,83.32
2023-04-15T04:09:17.177Z,83.32
2023-04-15T04:10:17.158Z,83.70
2023-04-15T04:11:17.184Z,83.42
2023-04-15T04:12:17.150Z,83.32
2023-04-15T04:13:17.133Z,83.84
2023-04-15T04:14:17.124Z,84.36
2023-04-15T04:15:17.136Z,84.15
2023-04-15T04:16:17.321Z,84.05
2023-04-15T04:17:17.192Z,83.94
2023-04-15T04:18:17.111Z,83.94
2023-04-15T04:19:17.113Z,83.90
2023-04-15T04:20:17.087Z,83.42
2023-04-15T04:21:17.111Z,84.08
2023-04-15T04:22:17.121Z,85.05
2023-04-15T04:23:17.230Z,86.21
2023-04-15T04:24:17.064Z,89.25
2023-04-15T04:25:17.040Z,89.98
2023-04-15T04:26:17.078Z,90.95
2023-04-15T04:27:17.041Z,92.55
2023-04-15T04:28:17.089Z,93.28
2023-04-15T04:29:17.035Z,94.05
2023-04-15T04:30:17.034Z,94.21
2023-04-15T04:31:17.004Z,94.84
2023-04-15T04:32:17.028Z,94.84
2023-04-15T04:33:17.047Z,94.53
2023-04-15T04:34:16.992Z,95.25
2023-04-15T04:35:16.988Z,94.48
2023-04-15T04:36:16.994Z,93.96
2023-04-15T04:37:17.003Z,94.06
2023-04-15T04:38:16.977Z,94.12
2023-04-15T04:39:16.991Z,93.40
2023-04-15T04:40:17.953Z,93.15
2023-04-15T04:41:16.950Z,92.18
2023-04-15T04:42:16.948Z,91.55
2023-04-15T04:43:16.916Z,90.26
2023-04-15T04:44:16.959Z,89.65
2023-04-15T04:45:16.933Z,89.34
2023-04-15T04:46:16.966Z,88.88
2023-04-15T04:47:16.898Z,88.46
2023-04-15T04:48:16.937Z,88.06
2023-04-15T04:49:16.907Z,87.70
2023-04-15T04:50:16.862Z,87.18
2023-04-15T04:51:17.887Z,85.84
2023-04-15T04:52:16.860Z,86.32
2023-04-15T04:53:16.855Z,85.91
2023-04-15T04:54:16.896Z,84.91
2023-04-15T04:55:16.872Z,85.42
2023-04-15T04:56:16.854Z,84.97
2023-04-15T04:57:16.871Z,84.66
2023-04-15T04:58:16.830Z,84.87
2023-04-15T04:59:17.033Z,84.87
2023-04-15T05:00:16.843Z,84.77
2023-04-15T05:01:16.847Z,84.77
2023-04-15T05:02:16.988Z,84.66
2023-04-15T05:03:17.040Z,84.36
2023-04-15T05:04:16.902Z,84.36
2023-04-15T05:05:16.801Z,84.36
2023-04-15T05:06:16.762Z,84.25
2023-04-15T05:07:16.875Z,84.56
2023-04-15T05:08:16.761Z,84.77
2023-04-15T05:09:16.753Z,84.87
2023-04-15T05:10:16.767Z,84.73
2023-04-15T05:11:16.744Z,85.04
2023-04-15T05:12:16.745Z,84.87
2023-04-15T05:13:16.709Z,84.45
2023-04-15T05:14:16.723Z,84.97
2023-04-15T05:15:16.723Z,84.66
2023-04-15T05:16:16.806Z,85.28
2023-04-15T05:17:16.695Z,85.91
2023-04-15T05:18:16.724Z,85.60
2023-04-15T05:19:16.676Z,85.60
2023-04-15T05:20:16.675Z,85.35
2023-04-15T05:21:16.716Z,85.55
2023-04-15T05:22:16.669Z,85.14
2023-04-15T05:23:16.668Z,85.35
2023-04-15T05:24:16.660Z,85.35
2023-04-15T05:25:16.690Z,85.31
2023-04-15T05:26:16.682Z,84.94
2023-04-15T05:27:16.639Z,84.73
2023-04-15T05:28:16.653Z,84.89
2023-04-15T05:29:16.654Z,84.38
2023-04-15T05:30:16.659Z,84.48
2023-04-15T05:31:16.647Z,84.28
2023-04-15T05:32:16.629Z,85.21
2023-04-15T05:33:16.616Z,84.89
2023-04-15T05:34:16.584Z,84.79
2023-04-15T05:35:16.621Z,84.75
2023-04-15T05:36:16.555Z,84.75
2023-04-15T05:37:17.599Z,84.34
2023-04-15T05:38:16.563Z,84.23
2023-04-15T05:39:16.579Z,84.23
2023-04-15T05:40:16.569Z,84.30
2023-04-15T05:41:19.099Z,83.68
2023-04-15T05:42:16.562Z,83.72
2023-04-15T05:43:16.560Z,83.89
2023-04-15T05:44:16.521Z,83.89
2023-04-15T05:45:16.575Z,84.03
2023-04-15T05:46:16.584Z,84.09
2023-04-15T05:47:16.511Z,83.99
2023-04-15T05:48:16.504Z,84.09
2023-04-15T05:49:16.498Z,83.78
2023-04-15T05:50:16.513Z,83.17
2023-04-15T05:51:16.508Z,84.59
2023-04-15T05:52:16.479Z,86.21
2023-04-15T05:53:16.495Z,87.46
2023-04-15T05:54:17.732Z,88.22
2023-04-15T05:55:16.586Z,88.64
2023-04-15T05:56:16.486Z,89.36
2023-04-15T05:57:16.447Z,89.94
2023-04-15T05:58:16.443Z,89.32
2023-04-15T05:59:16.433Z,88.76
2023-04-15T06:00:16.479Z,88.51
2023-04-15T06:01:16.469Z,88.57
2023-04-15T06:02:16.607Z,87.95
2023-04-15T06:03:16.523Z,88.32
2023-04-15T06:04:16.570Z,88.12
2023-04-15T06:05:16.428Z,87.77
2023-04-15T06:06:16.438Z,87.46
2023-04-15T06:07:16.453Z,85.81
2023-04-15T06:08:16.386Z,85.81
2023-04-15T06:09:17.379Z,85.97
2023-04-15T06:10:16.397Z,85.77
2023-04-15T06:11:16.407Z,85.57
2023-04-15T06:12:16.372Z,85.77
2023-04-15T06:13:16.338Z,85.11
2023-04-15T06:14:16.366Z,84.70
2023-04-15T06:15:16.337Z,84.59
2023-04-15T06:16:16.322Z,83.67
2023-04-15T06:17:16.323Z,84.45
2023-04-15T06:18:16.350Z,85.28
2023-04-15T06:19:16.306Z,85.44
2023-04-15T06:20:16.336Z,84.59
2023-04-15T06:21:16.292Z,84.91
2023-04-15T06:22:16.458Z,85.38
2023-04-15T06:23:16.339Z,85.69
2023-04-15T06:24:16.312Z,85.55
2023-04-15T06:25:16.298Z,84.93
2023-04-15T06:26:16.306Z,85.41
2023-04-15T06:27:16.269Z,85.51
2023-04-15T06:28:16.256Z,84.48
2023-04-15T06:29:17.278Z,84.07
2023-04-15T06:30:16.269Z,83.72
2023-04-15T06:31:16.249Z,83.41
2023-04-15T06:32:16.250Z,83.83
2023-04-15T06:33:16.263Z,83.83
2023-04-15T06:34:16.209Z,83.51
2023-04-15T06:35:16.219Z,83.51
2023-04-15T06:36:16.246Z,83.72
2023-04-15T06:37:16.248Z,82.69
2023-04-15T06:38:16.217Z,83.92
2023-04-15T06:39:16.192Z,84.95
2023-04-15T06:40:16.209Z,84.44
2023-04-15T06:41:16.175Z,84.34
2023-04-15T06:42:16.181Z,85.26
2023-04-15T06:43:16.184Z,85.98
2023-04-15T06:44:16.190Z,86.91
2023-04-15T06:45:16.137Z,87.32
2023-04-15T06:46:16.200Z,87.18
2023-04-15T06:47:16.178Z,86.54
2023-04-15T06:48:17.136Z,86.70
2023-04-15T06:49:16.134Z,87.42
2023-04-15T06:50:16.168Z,87.36
2023-04-15T06:51:16.129Z,85.51
2023-04-15T06:52:16.128Z,85.51
2023-04-15T06:53:16.123Z,85.92
2023-04-15T06:54:16.127Z,85.78
2023-04-15T06:55:16.140Z,86.74
2023-04-15T06:56:16.122Z,87.26
2023-04-15T06:57:16.092Z,87.73
2023-04-15T06:58:16.079Z,86.50
2023-04-15T06:59:16.096Z,86.08
2023-04-15T07:00:16.057Z,85.78
2023-04-15T07:01:16.101Z,85.88
2023-04-15T07:02:16.180Z,85.82
2023-04-15T07:03:16.096Z,85.82
2023-04-15T07:04:16.178Z,85.92
2023-04-15T07:05:16.031Z,85.98
2023-04-15T07:06:16.042Z,85.92
2023-04-15T07:07:16.082Z,85.61
2023-04-15T07:08:16.020Z,85.71
2023-04-15T07:09:16.009Z,86.85
2023-04-15T07:10:16.034Z,87.15
2023-04-15T07:11:16.031Z,85.86
2023-04-15T07:12:16.021Z,85.41
2023-04-15T07:13:16.036Z,86.95
2023-04-15T07:14:16.007Z,86.80
2023-04-15T07:15:15.983Z,85.82
2023-04-15T07:16:16.031Z,85.88
2023-04-15T07:17:16.035Z,86.70
2023-04-15T07:18:15.989Z,86.29
2023-04-15T07:19:15.992Z,86.70
2023-04-15T07:20:15.992Z,87.73
2023-04-15T07:21:15.957Z,86.91
2023-04-15T07:22:15.945Z,85.78
2023-04-15T07:23:15.971Z,85.68
2023-04-15T07:24:15.926Z,85.57
2023-04-15T07:25:15.959Z,85.71
2023-04-15T07:26:15.936Z,85.71
2023-04-15T07:27:15.956Z,85.78
2023-04-15T07:28:15.945Z,86.29
2023-04-15T07:29:15.949Z,87.22
2023-04-15T07:30:15.916Z,87.42
2023-04-15T07:31:15.933Z,87.22
2023-04-15T07:32:15.937Z,87.42
2023-04-15T07:33:15.918Z,87.84
2023-04-15T07:34:15.936Z,87.63
2023-04-15T07:35:15.937Z,87.32
2023-04-15T07:36:15.934Z,87.22
2023-04-15T07:37:15.961Z,87.69
2023-04-15T07:38:15.873Z,87.73
2023-04-15T07:39:15.884Z,87.01
2023-04-15T07:40:15.931Z,87.01
2023-04-15T07:41:15.923Z,87.52
2023-04-15T07:42:15.883Z,87.32
2023-04-15T07:43:15.913Z,87.84
2023-04-15T07:44:15.925Z,87.73
2023-04-15T07:45:15.827Z,88.24
2023-04-15T07:46:16.917Z,87.84
2023-04-15T07:47:15.818Z,87.94
2023-04-15T07:48:15.812Z,88.24
2023-04-15T07:49:15.906Z,89.07
2023-04-15T07:50:15.934Z,87.77
2023-04-15T07:51:15.838Z,87.84
2023-04-15T07:52:15.778Z,87.01
2023-04-15T07:53:15.799Z,87.12
2023-04-15T07:54:15.794Z,86.70
2023-04-15T07:55:15.769Z,87.87
2023-04-15T07:56:15.797Z,87.84
2023-04-15T07:57:15.883Z,87.52
2023-04-15T07:58:15.796Z,87.32
2023-04-15T07:59:15.787Z,88.04
2023-04-15T08:00:15.786Z,87.42
2023-04-15T08:01:15.777Z,87.52
2023-04-15T08:02:15.840Z,87.42
2023-04-15T08:03:15.919Z,87.63
2023-04-15T08:04:15.906Z,87.52
2023-04-15T08:05:15.751Z,88.24
2023-04-15T08:06:15.719Z,87.90
2023-04-15T08:07:15.715Z,88.10
2023-04-15T08:08:15.743Z,87.79
2023-04-15T08:09:15.781Z,88.24
2023-04-15T08:10:15.721Z,88.00
2023-04-15T08:11:15.682Z,87.84
2023-04-15T08:12:15.733Z,88.14
2023-04-15T08:13:15.687Z,87.94
2023-04-15T08:14:15.671Z,87.73
2023-04-15T08:15:15.689Z,87.94
2023-04-15T08:16:15.885Z,88.76
2023-04-15T08:17:15.731Z,88.66
2023-04-15T08:18:15.635Z,89.03
2023-04-15T08:19:15.665Z,89.34
2023-04-15T08:20:15.660Z,89.79
2023-04-15T08:21:15.655Z,89.23
2023-04-15T08:22:17.320Z,88.20
2023-04-15T08:23:15.611Z,88.24
2023-04-15T08:24:15.678Z,88.72
2023-04-15T08:25:15.621Z,88.96
2023-04-15T08:26:15.675Z,88.86
2023-04-15T08:27:15.619Z,89.69
2023-04-15T08:28:15.607Z,89.89
2023-04-15T08:29:15.584Z,89.11
2023-04-15T08:30:15.599Z,89.58
2023-04-15T08:31:15.600Z,88.96
2023-04-15T08:32:15.715Z,89.48
2023-04-15T08:33:15.626Z,89.28
2023-04-15T08:34:15.584Z,89.38
2023-04-15T08:35:15.574Z,90.00
2023-04-15T08:36:15.578Z,89.75
2023-04-15T08:37:15.611Z,90.26
2023-04-15T08:38:15.594Z,90.26
2023-04-15T08:39:15.547Z,89.85
2023-04-15T08:40:15.541Z,90.26
2023-04-15T08:41:15.581Z,89.85
2023-04-15T08:42:15.550Z,89.75
2023-04-15T08:43:15.539Z,89.75
2023-04-15T08:44:15.518Z,88.47
2023-04-15T08:45:15.507Z,88.78
2023-04-15T08:46:15.512Z,88.89
2023-04-15T08:47:15.489Z,88.31
2023-04-15T08:48:15.494Z,87.49
2023-04-15T08:49:15.537Z,87.38
2023-04-15T08:50:15.506Z,88.20
2023-04-15T08:51:15.479Z,88.10
2023-04-15T08:52:15.556Z,88.31
2023-04-15T08:53:15.474Z,88.31
2023-04-15T08:54:15.510Z,88.27
2023-04-15T08:55:15.565Z,87.75
2023-04-15T08:56:15.482Z,88.57
2023-04-15T08:57:15.476Z,87.90
2023-04-15T08:58:15.458Z,88.06
2023-04-15T08:59:15.566Z,88.06
2023-04-15T09:00:15.426Z,88.37
2023-04-15T09:01:15.498Z,88.17
2023-04-15T09:02:15.442Z,88.31
2023-04-15T09:03:15.503Z,88.78
2023-04-15T09:04:15.481Z,89.40
2023-04-15T09:05:15.441Z,88.17
2023-04-15T09:06:15.385Z,88.17
2023-04-15T09:07:15.391Z,88.37
2023-04-15T09:08:15.416Z,88.31
2023-04-15T09:09:15.394Z,87.75
2023-04-15T09:10:15.416Z,88.10
2023-04-15T09:11:15.355Z,89.44
2023-04-15T09:12:15.356Z,89.70
2023-04-15T09:13:15.359Z,88.17
2023-04-15T09:14:15.371Z,89.23
2023-04-15T09:15:15.549Z,89.13
2023-04-15T09:16:15.480Z,88.72
2023-04-15T09:17:15.363Z,89.34
2023-04-15T09:18:15.337Z,89.19
2023-04-15T09:19:15.328Z,89.19
2023-04-15T09:20:15.355Z,88.78
2023-04-15T09:21:15.299Z,89.19
2023-04-15T09:22:15.341Z,89.50
2023-04-15T09:23:15.340Z,89.46
2023-04-15T09:24:15.339Z,89.19
2023-04-15T09:25:15.306Z,89.66
2023-04-15T09:26:15.294Z,89.60
2023-04-15T09:27:15.291Z,89.50
2023-04-15T09:28:15.297Z,89.60
2023-04-15T09:29:15.291Z,89.70
2023-04-15T09:30:15.299Z,89.91
2023-04-15T09:31:15.253Z,89.29
2023-04-15T09:32:15.287Z,89.19
2023-04-15T09:33:15.279Z,89.34
2023-04-15T09:34:15.227Z,89.54
2023-04-15T09:35:15.239Z,89.95
2023-04-15T09:36:15.234Z,90.16
2023-04-15T09:37:31.289Z,91.04
2023-04-15T09:38:17.257Z,90.63
2023-04-15T09:39:15.243Z,90.12
2023-04-15T09:40:15.203Z,90.01
2023-04-15T09:41:15.217Z,90.42
2023-04-15T09:42:15.203Z,90.83
2023-04-15T09:43:15.213Z,90.73
2023-04-15T09:44:15.192Z,90.53
2023-04-15T09:45:15.220Z,90.63
2023-04-15T09:46:15.246Z,90.22
2023-04-15T09:47:15.170Z,91.14
2023-04-15T09:48:15.188Z,90.01
2023-04-15T09:49:15.148Z,89.70
2023-04-15T09:50:15.142Z,90.73
2023-04-15T09:51:15.189Z,90.22
2023-04-15T09:52:15.129Z,90.94
2023-04-15T09:53:15.159Z,90.53
2023-04-15T09:54:15.142Z,91.00
2023-04-15T09:55:15.126Z,91.86
2023-04-15T09:56:15.110Z,91.61
2023-04-15T09:57:15.156Z,91.41
2023-04-15T09:58:15.150Z,91.51
2023-04-15T09:59:15.108Z,90.80
2023-04-15T10:00:15.162Z,91.10
2023-04-15T10:01:15.100Z,91.00
2023-04-15T10:02:15.097Z,91.51
2023-04-15T10:03:15.335Z,92.03
2023-04-15T10:04:15.256Z,91.20
2023-04-15T10:05:15.086Z,89.76
2023-04-15T10:06:15.084Z,90.80
2023-04-15T10:07:16.901Z,91.51
2023-04-15T10:08:15.041Z,91.00
2023-04-15T10:09:15.071Z,91.41
2023-04-15T10:10:15.160Z,91.00
2023-04-15T10:11:15.096Z,90.38
2023-04-15T10:12:15.045Z,90.69
2023-04-15T10:13:15.032Z,90.73
2023-04-15T10:14:15.046Z,92.27
2023-04-15T10:15:15.056Z,92.48
2023-04-15T10:16:15.044Z,92.44
2023-04-15T10:17:14.999Z,92.23
2023-04-15T10:18:14.990Z,92.48
2023-04-15T10:19:15.005Z,92.95
2023-04-15T10:20:15.093Z,93.16
2023-04-15T10:21:14.976Z,92.85
2023-04-15T10:22:14.978Z,92.23
2023-04-15T10:23:14.963Z,92.33
2023-04-15T10:24:14.958Z,93.26
2023-04-15T10:25:15.082Z,93.26
2023-04-15T10:26:14.954Z,93.16
2023-04-15T10:27:14.967Z,93.36
2023-04-15T10:28:14.962Z,92.64
2023-04-15T10:29:14.987Z,91.51
2023-04-15T10:30:15.091Z,91.41
2023-04-15T10:31:15.041Z,91.88
2023-04-15T10:32:14.908Z,91.51
2023-04-15T10:33:14.923Z,92.33
2023-04-15T10:34:14.921Z,92.23
2023-04-15T10:35:14.956Z,92.03
2023-04-15T10:36:14.903Z,92.23
2023-04-15T10:37:14.945Z,92.85
2023-04-15T10:38:14.947Z,92.64
2023-04-15T10:39:14.890Z,92.23
2023-04-15T10:40:14.935Z,92.23
2023-04-15T10:41:15.794Z,92.40
2023-04-15T10:42:14.896Z,92.03
2023-04-15T10:43:14.866Z,91.20
2023-04-15T10:44:14.881Z,91.82
2023-04-15T10:45:14.891Z,90.80
2023-04-15T10:46:14.910Z,91.41
2023-04-15T10:47:14.852Z,91.37
2023-04-15T10:48:14.862Z,92.03
2023-04-15T10:49:14.879Z,91.72
2023-04-15T10:50:14.825Z,91.72
2023-04-15T10:51:14.946Z,91.82
2023-04-15T10:52:14.818Z,91.51
2023-04-15T10:53:14.860Z,91.45
2023-04-15T10:54:15.006Z,91.55
2023-04-15T10:55:14.827Z,91.61
2023-04-15T10:56:14.797Z,92.27
2023-04-15T10:57:14.798Z,92.27
2023-04-15T10:58:14.794Z,92.33
2023-04-15T10:59:14.851Z,92.07
2023-04-15T11:00:14.921Z,92.27
2023-04-15T11:01:14.788Z,92.38
2023-04-15T11:02:14.871Z,92.38
2023-04-15T11:03:14.935Z,92.89
2023-04-15T11:04:14.876Z,93.51
2023-04-15T11:05:14.785Z,92.79
2023-04-15T11:06:14.778Z,92.79
2023-04-15T11:07:14.760Z,93.30
2023-04-15T11:08:14.771Z,92.99
2023-04-15T11:09:14.764Z,93.40
2023-04-15T11:10:14.747Z,93.35
2023-04-15T11:11:14.722Z,93.30
2023-04-15T11:12:14.750Z,92.83
2023-04-15T11:13:14.718Z,93.35
2023-04-15T11:14:14.697Z,93.30
2023-04-15T11:15:14.725Z,93.35
2023-04-15T11:16:14.761Z,92.79
2023-04-15T11:17:14.702Z,92.99
2023-04-15T11:18:14.693Z,93.10
2023-04-15T11:19:14.715Z,92.52
2023-04-15T11:20:14.705Z,92.58
2023-04-15T11:21:14.692Z,92.79
2023-04-15T11:22:14.674Z,92.58
2023-04-15T11:23:15.727Z,93.20
2023-04-15T11:24:14.673Z,93.96
2023-04-15T11:25:14.676Z,93.65
2023-04-15T11:26:14.651Z,93.44
2023-04-15T11:27:14.645Z,93.61
2023-04-15T11:28:14.677Z,93.86
2023-04-15T11:29:14.639Z,92.73
2023-04-15T11:30:14.686Z,93.35
2023-04-15T11:31:14.641Z,93.76
2023-04-15T11:32:14.737Z,94.07
2023-04-15T11:33:14.688Z,93.51
2023-04-15T11:34:14.622Z,93.51
2023-04-15T11:35:14.614Z,93.82
2023-04-15T11:36:14.678Z,94.12
2023-04-15T11:37:14.594Z,94.54
2023-04-15T11:38:14.585Z,94.12
2023-04-15T11:39:14.608Z,94.48
2023-04-15T11:40:14.593Z,94.68
2023-04-15T11:41:14.600Z,94.99
2023-04-15T11:42:14.573Z,94.68
2023-04-15T11:43:14.604Z,94.58
2023-04-15T11:44:14.566Z,94.48
2023-04-15T11:45:14.562Z,94.93
2023-04-15T11:46:14.608Z,94.48
2023-04-15T11:47:14.573Z,94.31
2023-04-15T11:48:14.532Z,94.58
2023-04-15T11:49:14.536Z,94.68
2023-04-15T11:50:14.552Z,94.48
2023-04-15T11:51:14.539Z,94.27
2023-04-15T11:52:15.581Z,93.86
2023-04-15T11:53:14.554Z,94.17
2023-04-15T11:54:14.622Z,94.37
2023-04-15T11:55:14.553Z,94.48
2023-04-15T11:56:14.518Z,94.68
2023-04-15T11:57:14.612Z,94.89
2023-04-15T11:58:16.093Z,94.68
2023-04-15T11:59:14.506Z,94.58
2023-04-15T12:00:14.534Z,94.37
2023-04-15T12:01:15.536Z,94.43
2023-04-15T12:02:14.657Z,94.17
2023-04-15T12:03:14.722Z,93.65
2023-04-15T12:04:14.534Z,93.76
2023-04-15T12:05:14.467Z,94.07
2023-04-15T12:06:14.482Z,94.89
2023-04-15T12:07:14.447Z,94.84
2023-04-15T12:08:14.486Z,94.27
2023-04-15T12:09:14.442Z,93.92
2023-04-15T12:10:14.462Z,93.96
2023-04-15T12:11:14.468Z,94.68
2023-04-15T12:12:14.540Z,94.83
2023-04-15T12:13:14.400Z,94.83
2023-04-15T12:14:14.471Z,94.83
2023-04-15T12:15:14.442Z,94.73
2023-04-15T12:16:14.510Z,95.14
2023-04-15T12:17:14.411Z,94.93
2023-04-15T12:18:14.412Z,95.09
2023-04-15T12:19:14.424Z,95.40
2023-04-15T12:20:14.366Z,94.89
2023-04-15T12:21:14.385Z,95.50
2023-04-15T12:22:14.594Z,94.99
2023-04-15T12:23:14.336Z,95.09
2023-04-15T12:24:15.385Z,94.48
2023-04-15T12:25:14.356Z,95.09
2023-04-15T12:26:14.338Z,95.30
2023-04-15T12:27:14.345Z,95.30
2023-04-15T12:28:14.378Z,94.78
2023-04-15T12:29:14.341Z,94.84
2023-04-15T12:30:14.318Z,94.54
2023-04-15T12:31:14.338Z,94.84
2023-04-15T12:32:14.331Z,94.84
2023-04-15T12:33:15.323Z,94.74
2023-04-15T12:34:15.334Z,94.23
2023-04-15T12:35:14.325Z,95.20
2023-04-15T12:36:14.290Z,94.89
2023-04-15T12:37:14.352Z,94.27
2023-04-15T12:38:14.277Z,94.95
2023-04-15T12:39:14.285Z,94.54
2023-04-15T12:40:14.302Z,94.54
2023-04-15T12:41:14.260Z,95.40
2023-04-15T12:42:14.292Z,95.30
2023-04-15T12:43:14.292Z,94.93
2023-04-15T12:44:14.281Z,95.20
2023-04-15T12:45:15.281Z,94.37
2023-04-15T12:46:14.315Z,94.58
2023-04-15T12:47:14.244Z,95.50
2023-04-15T12:48:14.216Z,95.30
2023-04-15T12:49:14.209Z,95.40
2023-04-15T12:50:14.278Z,95.67
2023-04-15T12:51:14.208Z,95.36
2023-04-15T12:52:14.219Z,95.20